createdAt,value
2019-05-05T00:00:54.944Z,8.40
2019-05-05T00:03:34.252Z,7.55
2019-05-05T00:06:28.756Z,7.20
2019-05-05T00:09:18.265Z,7.40
2019-05-05T00:11:50.163Z,8.83
2019-05-05T00:14:37.900Z,7.28
2019-05-05T00:17:09.797Z,8.55
2019-05-05T00:19:40.027Z,7.83
2019-05-05T00:22:10.160Z,8.08
2019-05-05T00:24:40.195Z,7.62
2019-05-05T00:27:10.535Z,7.20
2019-05-05T00:29:40.828Z,7.10
2019-05-05T00:32:11.205Z,5.97
2019-05-05T00:34:41.039Z,7.08
2019-05-05T00:37:11.228Z,7.00
2019-05-05T00:39:41.397Z,6.87
2019-05-05T00:42:11.453Z,7.05
2019-05-05T00:44:41.624Z,7.33
2019-05-05T00:47:14.597Z,7.10
2019-05-05T00:52:17.072Z,7.20
2019-05-05T00:54:47.258Z,6.97
2019-05-05T00:57:17.457Z,7.00
2019-05-05T00:59:47.631Z,7.20
2019-05-05T01:02:37.337Z,6.30
2019-05-05T01:05:12.478Z,6.80
2019-05-05T01:07:44.418Z,6.33
2019-05-05T01:10:14.729Z,6.62
2019-05-05T01:12:45.110Z,7.47
2019-05-05T01:15:15.482Z,6.78
2019-05-05T01:17:45.604Z,6.50
2019-05-05T01:20:15.971Z,7.10
2019-05-05T01:22:47.043Z,6.83
2019-05-05T01:25:17.335Z,7.22
2019-05-05T01:27:47.582Z,7.55
2019-05-05T01:30:21.819Z,7.03
2019-05-05T01:33:02.156Z,6.65
2019-05-05T01:35:33.685Z,6.97
2019-05-05T01:38:05.515Z,6.58
2019-05-05T01:40:38.174Z,7.50
2019-05-05T01:43:08.379Z,7.22
2019-05-05T01:45:39.712Z,7.17
2019-05-05T01:48:09.957Z,7.33
2019-05-05T01:50:39.997Z,7.60
2019-05-05T01:53:11.177Z,6.33
2019-05-05T01:55:41.222Z,7.10
2019-05-05T01:58:11.623Z,7.08
2019-05-05T02:00:41.481Z,7.55
2019-05-05T02:03:11.962Z,7.05
2019-05-05T02:05:42.159Z,7.03
2019-05-05T02:08:12.328Z,6.90
2019-05-05T02:10:42.542Z,7.10
2019-05-05T02:13:12.719Z,7.40
2019-05-05T02:15:44.587Z,7.00
2019-05-05T02:18:14.972Z,6.55
2019-05-05T02:20:51.200Z,7.42
2019-05-05T02:23:21.128Z,7.62
2019-05-05T02:25:51.313Z,7.72
2019-05-05T02:28:21.230Z,7.00
2019-05-05T02:30:55.005Z,8.28
2019-05-05T02:33:26.153Z,7.62
2019-05-05T02:35:56.566Z,7.95
2019-05-05T02:38:26.817Z,7.58
2019-05-05T02:40:58.450Z,8.13
2019-05-05T02:43:30.381Z,7.28
2019-05-05T02:46:15.249Z,8.48
2019-05-05T02:48:47.183Z,8.55
2019-05-05T02:51:17.832Z,9.28
2019-05-05T02:53:51.230Z,8.73
2019-05-05T02:56:25.359Z,8.83
2019-05-05T02:58:59.342Z,8.93
2019-05-05T03:01:40.327Z,8.90
2019-05-05T03:04:13.947Z,8.60
2019-05-05T03:06:46.494Z,9.28
2019-05-05T03:11:48.316Z,8.68
2019-05-05T03:14:20.464Z,8.88
2019-05-05T03:16:51.359Z,10.03
2019-05-05T03:19:24.049Z,8.68
2019-05-05T03:21:54.845Z,10.65
2019-05-05T03:24:25.394Z,9.98
2019-05-05T03:26:55.666Z,9.60
2019-05-05T03:29:26.216Z,9.20
2019-05-05T03:31:57.438Z,10.38
2019-05-05T03:34:27.972Z,10.08
2019-05-05T03:36:58.316Z,10.08
2019-05-05T03:39:30.330Z,10.53
2019-05-05T03:42:11.516Z,11.28
2019-05-05T03:44:52.163Z,10.43
2019-05-05T03:47:24.076Z,9.90
2019-05-05T03:49:54.421Z,10.68
2019-05-05T03:52:24.667Z,10.98
2019-05-05T03:54:55.533Z,10.70
2019-05-05T03:57:26.112Z,11.63
2019-05-05T03:59:56.808Z,12.93
2019-05-05T04:02:34.579Z,10.80
2019-05-05T04:05:06.639Z,11.75
2019-05-05T04:07:36.894Z,11.07
2019-05-05T04:10:07.165Z,11.57
2019-05-05T04:12:39.612Z,10.75
2019-05-05T04:15:09.945Z,10.30
2019-05-05T04:17:53.678Z,11.63
2019-05-05T04:20:25.301Z,11.30
2019-05-05T04:22:57.940Z,11.20
2019-05-05T04:25:27.115Z,11.35
2019-05-05T04:27:57.253Z,12.78
2019-05-05T04:30:27.428Z,11.03
2019-05-05T04:32:57.559Z,10.88
2019-05-05T04:35:27.800Z,12.78
2019-05-05T04:37:57.682Z,11.57
2019-05-05T04:40:27.613Z,12.13
2019-05-05T04:42:57.694Z,12.13
2019-05-05T04:45:27.670Z,11.97
2019-05-05T04:47:59.540Z,13.20
2019-05-05T04:50:31.142Z,11.80
2019-05-05T04:53:04.585Z,12.25
2019-05-05T04:55:35.434Z,11.35
2019-05-05T04:58:05.404Z,11.40
2019-05-05T05:00:35.359Z,11.93
2019-05-05T05:03:23.946Z,11.38
2019-05-05T05:05:55.879Z,11.28
2019-05-05T05:08:25.782Z,11.95
2019-05-05T05:10:55.981Z,11.40
2019-05-05T05:13:26.180Z,10.80
2019-05-05T05:15:56.346Z,10.38
2019-05-05T05:18:26.570Z,11.43
2019-05-05T05:20:56.694Z,10.50
2019-05-05T05:23:29.511Z,10.40
2019-05-05T05:25:58.788Z,11.60
2019-05-05T05:28:28.629Z,11.08
2019-05-05T05:30:58.605Z,10.68
2019-05-05T05:33:28.758Z,11.35
2019-05-05T05:35:58.944Z,11.97
2019-05-05T05:38:28.826Z,11.00
2019-05-05T05:41:07.054Z,11.57
2019-05-05T05:43:54.186Z,10.50
2019-05-05T05:46:34.950Z,9.75
2019-05-05T05:49:24.133Z,10.48
2019-05-05T05:51:54.387Z,10.18
2019-05-05T05:54:24.293Z,9.38
2019-05-05T05:56:54.552Z,10.28
2019-05-05T05:59:24.846Z,12.88
2019-05-05T06:02:15.729Z,16.17
2019-05-05T06:04:45.895Z,11.00
2019-05-05T06:07:15.779Z,11.00
2019-05-05T06:09:45.955Z,8.98
2019-05-05T06:12:16.867Z,7.70
2019-05-05T06:14:49.992Z,8.40
2019-05-05T06:17:19.855Z,7.20
2019-05-05T06:19:53.483Z,8.75
2019-05-05T06:22:29.449Z,8.83
2019-05-05T06:24:56.478Z,8.43
2019-05-05T06:27:26.664Z,9.05
2019-05-05T06:29:56.865Z,9.35
2019-05-05T06:32:27.862Z,7.22
2019-05-05T06:34:58.146Z,7.60
2019-05-05T06:37:28.418Z,8.53
2019-05-05T06:40:00.142Z,7.60
2019-05-05T06:42:34.371Z,7.28
2019-05-05T06:45:34.248Z,7.22
2019-05-05T06:48:04.428Z,6.90
2019-05-05T06:50:34.792Z,6.37
2019-05-05T06:53:05.985Z,6.92
2019-05-05T06:55:35.911Z,6.28
2019-05-05T06:58:05.917Z,7.12
2019-05-05T07:00:36.134Z,5.80
2019-05-05T07:03:07.868Z,6.67
2019-05-05T07:05:39.812Z,6.25
2019-05-05T07:08:13.595Z,5.40
2019-05-05T07:10:44.434Z,5.75
2019-05-05T07:13:15.774Z,5.65
2019-05-05T07:15:46.451Z,5.00
2019-05-05T07:18:16.672Z,5.47
2019-05-05T07:20:46.801Z,5.62
2019-05-05T07:23:16.940Z,4.97
2019-05-05T07:25:47.222Z,4.70
2019-05-05T07:28:17.464Z,5.40
2019-05-05T07:30:47.852Z,5.53
2019-05-05T07:33:17.715Z,5.67
2019-05-05T07:36:01.379Z,5.65
2019-05-05T07:38:27.007Z,5.47
2019-05-05T07:40:57.015Z,3.25
2019-05-05T07:43:28.493Z,3.62
2019-05-05T07:45:58.376Z,3.02
2019-05-05T07:48:28.744Z,4.65
2019-05-05T07:51:01.507Z,4.00
2019-05-05T07:53:30.595Z,4.37
2019-05-05T07:56:00.682Z,4.47
2019-05-05T07:58:30.526Z,4.15
2019-05-05T08:01:00.897Z,4.20
2019-05-05T08:03:30.832Z,4.42
2019-05-05T08:06:01.141Z,4.40
2019-05-05T08:08:33.500Z,3.50
2019-05-05T08:11:04.792Z,3.83
2019-05-05T08:13:36.171Z,3.70
2019-05-05T08:16:08.208Z,4.05
2019-05-05T08:18:43.865Z,4.60
2019-05-05T08:21:14.201Z,7.67
2019-05-05T08:23:57.553Z,3.05
2019-05-05T08:26:33.689Z,4.15
2019-05-05T08:29:21.170Z,4.35
2019-05-05T08:31:58.958Z,3.70
2019-05-05T08:34:29.268Z,2.55
2019-05-05T08:36:59.900Z,5.75
2019-05-05T08:39:31.276Z,5.90
2019-05-05T08:42:04.101Z,5.25
2019-05-05T08:44:34.294Z,5.90
2019-05-05T08:47:04.644Z,3.80
2019-05-05T08:49:34.888Z,3.67
2019-05-05T08:52:05.229Z,3.65
2019-05-05T08:54:35.391Z,2.40
2019-05-05T08:57:05.775Z,2.62
2019-05-05T08:59:36.017Z,2.25
2019-05-05T09:02:07.912Z,2.20
2019-05-05T09:04:38.596Z,2.42
2019-05-05T09:07:08.894Z,2.17
2019-05-05T09:09:39.127Z,2.22
2019-05-05T09:12:10.651Z,2.55
2019-05-05T09:14:40.871Z,2.40
2019-05-05T09:17:10.709Z,2.42
2019-05-05T09:19:40.889Z,2.02
2019-05-05T09:22:10.821Z,2.40
2019-05-05T09:24:48.280Z,2.25
2019-05-05T09:27:28.283Z,2.25
2019-05-05T09:29:59.079Z,2.27
2019-05-05T09:32:35.244Z,2.98
2019-05-05T09:35:07.666Z,1.47
2019-05-05T09:37:37.866Z,2.12
2019-05-05T09:40:08.341Z,2.20
2019-05-05T09:42:38.616Z,2.40
2019-05-05T09:45:10.197Z,1.80
2019-05-05T09:47:40.614Z,1.95
2019-05-05T09:50:11.022Z,1.98
2019-05-05T09:52:41.082Z,1.90
2019-05-05T09:55:13.856Z,2.27
2019-05-05T09:57:44.343Z,1.95
2019-05-05T10:00:14.937Z,2.00
2019-05-05T10:02:45.294Z,2.65
2019-05-05T10:05:15.828Z,1.77
2019-05-05T10:07:46.293Z,1.70
2019-05-05T10:10:17.409Z,1.67
2019-05-05T10:12:48.045Z,1.30
2019-05-05T10:15:18.401Z,1.70
2019-05-05T10:17:48.558Z,1.90
2019-05-05T10:20:18.975Z,1.40
2019-05-05T10:22:51.528Z,1.30
2019-05-05T10:25:29.267Z,1.40
2019-05-05T10:27:59.319Z,1.27
2019-05-05T10:30:29.633Z,1.57
2019-05-05T10:33:00.104Z,1.60
2019-05-05T10:35:31.468Z,1.62
2019-05-05T10:38:02.634Z,1.60
2019-05-05T10:40:34.765Z,1.95
2019-05-05T10:43:06.653Z,1.85
2019-05-05T10:45:37.091Z,1.98
2019-05-05T10:48:07.328Z,1.65
2019-05-05T10:50:38.911Z,1.60
2019-05-05T10:53:09.087Z,1.35
2019-05-05T10:55:39.139Z,1.50
2019-05-05T10:58:09.502Z,1.32
2019-05-05T11:00:45.367Z,1.60
2019-05-05T11:03:23.574Z,1.20
2019-05-05T11:05:55.369Z,1.10
2019-05-05T11:08:26.056Z,1.17
2019-05-05T11:10:56.551Z,1.20
2019-05-05T11:13:26.851Z,1.10
2019-05-05T11:15:56.906Z,1.62
2019-05-05T11:18:27.371Z,2.20
2019-05-05T11:20:58.078Z,4.17
2019-05-05T11:23:28.161Z,2.67
2019-05-05T11:25:58.483Z,2.20
2019-05-05T11:28:33.775Z,2.15
2019-05-05T11:31:04.544Z,2.02
2019-05-05T11:33:51.377Z,2.02
2019-05-05T11:36:24.037Z,1.67
2019-05-05T11:38:54.510Z,2.95
2019-05-05T11:41:24.774Z,4.05
2019-05-05T11:43:55.272Z,3.15
2019-05-05T11:46:26.866Z,2.12
2019-05-05T11:48:58.026Z,3.17
2019-05-05T11:51:28.521Z,2.50
2019-05-05T11:54:18.061Z,1.98
2019-05-05T11:56:48.525Z,1.57
2019-05-05T11:59:19.332Z,1.70
2019-05-05T12:01:49.910Z,1.45
2019-05-05T12:04:20.634Z,1.98
2019-05-05T12:06:52.323Z,1.87
2019-05-05T12:09:24.747Z,2.12
2019-05-05T12:11:56.706Z,2.60
2019-05-05T12:14:29.832Z,2.47
2019-05-05T12:17:01.090Z,1.90
2019-05-05T12:19:33.519Z,2.02
2019-05-05T12:22:06.044Z,2.25
2019-05-05T12:24:38.097Z,1.40
2019-05-05T12:27:09.948Z,1.97
2019-05-05T12:29:41.603Z,2.70
2019-05-05T12:32:12.981Z,1.87
2019-05-05T12:34:44.593Z,1.60
2019-05-05T12:37:14.682Z,5.75
2019-05-05T12:39:44.675Z,4.50
2019-05-05T12:42:15.037Z,1.92
2019-05-05T12:44:47.340Z,2.90
2019-05-05T12:47:28.179Z,2.60
2019-05-05T12:49:58.575Z,2.80
2019-05-05T12:52:28.854Z,2.30
2019-05-05T12:55:01.871Z,2.92
2019-05-05T12:57:31.273Z,3.10
2019-05-05T13:00:01.677Z,2.72
2019-05-05T13:02:32.356Z,2.70
2019-05-05T13:05:04.211Z,2.65
2019-05-05T13:07:34.367Z,2.22
2019-05-05T13:10:05.866Z,2.12
2019-05-05T13:12:36.687Z,2.23
2019-05-05T13:15:08.689Z,2.27
2019-05-05T13:17:38.995Z,1.85
2019-05-05T13:20:14.052Z,2.02
2019-05-05T13:22:48.940Z,2.00
2019-05-05T13:25:26.027Z,1.98
2019-05-05T13:27:57.564Z,2.02
2019-05-05T13:30:27.593Z,2.00
2019-05-05T13:32:57.594Z,1.70
2019-05-05T13:35:27.605Z,1.95
2019-05-05T13:37:58.040Z,2.42
2019-05-05T13:40:28.494Z,2.15
2019-05-05T13:42:58.992Z,2.20
2019-05-05T13:45:30.762Z,2.00
2019-05-05T13:48:02.991Z,2.40
2019-05-05T13:50:40.465Z,1.92
2019-05-05T13:53:14.263Z,2.70
2019-05-05T13:55:46.065Z,1.62
2019-05-05T13:58:16.474Z,1.40
2019-05-05T14:00:47.794Z,1.30
2019-05-05T14:03:18.065Z,1.30
2019-05-05T14:05:48.299Z,1.57
2019-05-05T14:08:18.750Z,2.05
2019-05-05T14:10:49.235Z,1.30
2019-05-05T14:13:19.395Z,1.50
2019-05-05T14:16:09.220Z,9.63
2019-05-05T14:18:39.604Z,2.42
2019-05-05T14:21:10.150Z,8.70
2019-05-05T14:23:57.309Z,2.02
2019-05-05T14:26:28.597Z,2.10
2019-05-05T14:29:00.071Z,1.50
2019-05-05T14:31:34.241Z,1.22
2019-05-05T14:34:06.440Z,1.40
2019-05-05T14:36:40.849Z,1.45
2019-05-05T14:39:14.660Z,1.22
2019-05-05T14:41:44.770Z,1.40
2019-05-05T14:44:15.093Z,1.62
2019-05-05T14:46:45.341Z,1.60
2019-05-05T14:49:15.651Z,1.57
2019-05-05T14:51:45.849Z,1.60
2019-05-05T14:54:16.091Z,1.80
2019-05-05T14:56:46.382Z,1.67
2019-05-05T14:59:16.840Z,1.72
2019-05-05T15:01:47.833Z,2.00
2019-05-05T15:04:21.387Z,1.70
2019-05-05T15:06:54.428Z,1.57
2019-05-05T15:09:44.988Z,1.55
2019-05-05T15:12:23.728Z,1.80
2019-05-05T15:15:07.281Z,2.47
2019-05-05T15:17:38.806Z,1.60
2019-05-05T15:20:09.264Z,1.27
2019-05-05T15:22:41.070Z,1.47
2019-05-05T15:25:11.761Z,1.70
2019-05-05T15:27:42.111Z,2.40
2019-05-05T15:30:12.575Z,2.55
2019-05-05T15:32:43.828Z,2.17
2019-05-05T15:35:14.402Z,2.98
2019-05-05T15:37:46.290Z,2.00
2019-05-05T15:40:16.942Z,1.57
2019-05-05T15:42:56.201Z,2.95
2019-05-05T15:45:27.403Z,2.50
2019-05-05T15:47:57.665Z,2.62
2019-05-05T15:50:27.935Z,1.80
2019-05-05T15:52:58.443Z,1.67
2019-05-05T15:55:28.868Z,2.42
2019-05-05T15:57:59.347Z,2.33
2019-05-05T16:00:29.552Z,1.65
2019-05-05T16:03:00.020Z,2.45
2019-05-05T16:05:31.368Z,2.60
2019-05-05T16:08:01.648Z,3.42
2019-05-05T16:10:31.919Z,2.80
2019-05-05T16:13:04.337Z,3.20
2019-05-05T16:15:35.806Z,2.53
2019-05-05T16:18:22.826Z,1.73
2019-05-05T16:20:54.764Z,1.82
2019-05-05T16:23:43.593Z,1.80
2019-05-05T16:26:14.072Z,1.50
2019-05-05T16:28:44.667Z,1.55
2019-05-05T16:31:15.048Z,1.80
2019-05-05T16:33:48.448Z,1.50
2019-05-05T16:36:17.678Z,1.75
2019-05-05T16:38:47.928Z,1.37
2019-05-05T16:41:18.227Z,1.55
2019-05-05T16:43:48.428Z,1.57
2019-05-05T16:46:20.208Z,1.70
2019-05-05T16:48:50.477Z,1.80
2019-05-05T16:51:25.032Z,2.22
2019-05-05T16:53:57.627Z,1.92
2019-05-05T16:56:27.758Z,1.90
2019-05-05T16:58:58.243Z,4.00
2019-05-05T17:01:29.355Z,3.25
2019-05-05T17:04:09.167Z,2.37
2019-05-05T17:06:31.927Z,1.80
2019-05-05T17:09:04.523Z,2.95
2019-05-05T17:11:36.217Z,1.82
2019-05-05T17:14:11.161Z,1.75
2019-05-05T17:16:44.184Z,1.30
2019-05-05T17:19:19.489Z,1.60
2019-05-05T17:21:54.039Z,1.60
2019-05-05T17:24:25.383Z,1.55
2019-05-05T17:26:55.755Z,1.22
2019-05-05T17:29:25.942Z,1.70
2019-05-05T17:31:57.946Z,2.05
2019-05-05T17:34:28.439Z,1.60
2019-05-05T17:36:58.829Z,1.70
2019-05-05T17:39:30.779Z,1.60
2019-05-05T17:42:02.747Z,1.70
2019-05-05T17:44:34.812Z,1.55
2019-05-05T17:47:15.444Z,1.62
2019-05-05T17:50:04.139Z,1.20
2019-05-05T17:52:53.908Z,1.80
2019-05-05T17:55:28.164Z,1.35
2019-05-05T17:58:02.386Z,1.37
2019-05-05T18:00:34.256Z,1.82
2019-05-05T18:03:04.858Z,1.30
2019-05-05T18:05:54.517Z,1.60
2019-05-05T18:08:40.221Z,2.10
2019-05-05T18:11:28.278Z,1.50
2019-05-05T18:14:04.039Z,1.70
2019-05-05T18:16:34.295Z,1.90
2019-05-05T18:19:04.614Z,1.80
2019-05-05T18:21:34.979Z,2.75
2019-05-05T18:24:05.512Z,2.52
2019-05-05T18:26:35.772Z,3.35
2019-05-05T18:29:06.075Z,2.58
2019-05-05T18:31:36.264Z,3.05
2019-05-05T18:34:06.723Z,2.12
2019-05-05T18:36:37.017Z,3.35
2019-05-05T18:39:08.500Z,3.05
2019-05-05T18:41:47.110Z,4.00
2019-05-05T18:44:19.122Z,3.37
2019-05-05T18:46:51.030Z,2.80
2019-05-05T18:49:23.241Z,3.03
2019-05-05T18:51:53.431Z,3.30
2019-05-05T18:54:23.832Z,2.90
2019-05-05T18:56:54.166Z,2.58
2019-05-05T18:59:24.496Z,2.90
2019-05-05T19:01:58.704Z,3.08
2019-05-05T19:04:34.724Z,3.37
2019-05-05T19:07:06.722Z,3.40
2019-05-05T19:09:37.200Z,4.00
2019-05-05T19:12:10.151Z,4.25
2019-05-05T19:17:10.139Z,4.30
2019-05-05T19:19:41.968Z,3.45
2019-05-05T19:22:16.210Z,2.62
2019-05-05T19:24:46.225Z,3.33
2019-05-05T19:27:16.646Z,3.15
2019-05-05T19:29:46.607Z,3.87
2019-05-05T19:32:16.789Z,3.95
2019-05-05T19:34:46.924Z,3.60
2019-05-05T19:37:17.245Z,3.27
2019-05-05T19:39:47.191Z,4.17
2019-05-05T19:42:17.622Z,4.67
2019-05-05T19:44:47.919Z,4.40
2019-05-05T19:47:21.327Z,4.42
2019-05-05T19:49:56.222Z,4.55
2019-05-05T19:52:26.321Z,16.93
2019-05-05T19:54:56.670Z,14.55
2019-05-05T19:57:26.983Z,7.17
2019-05-05T19:59:56.968Z,4.33
2019-05-05T20:02:26.897Z,3.95
2019-05-05T20:04:57.225Z,4.25
2019-05-05T20:07:27.343Z,5.28
2019-05-05T20:09:57.764Z,14.45
2019-05-05T20:12:28.010Z,21.05
2019-05-05T20:14:58.803Z,15.65
2019-05-05T20:17:33.703Z,15.98
2019-05-05T20:20:06.311Z,15.65
2019-05-05T20:22:36.513Z,9.50
2019-05-05T20:25:08.594Z,38.02
2019-05-05T20:27:38.629Z,16.20
2019-05-05T20:30:09.278Z,13.10
2019-05-05T20:32:47.996Z,8.05
2019-05-05T20:35:33.675Z,10.18
2019-05-05T20:38:05.188Z,9.98
2019-05-05T20:40:36.940Z,5.05
2019-05-05T20:43:07.192Z,5.05
2019-05-05T20:45:37.139Z,5.05
2019-05-05T20:48:07.364Z,4.67
2019-05-05T20:50:37.785Z,3.92
2019-05-05T20:53:07.638Z,5.53
2019-05-05T20:55:37.805Z,4.50
2019-05-05T20:58:07.868Z,3.65
2019-05-05T21:00:44.253Z,3.60
2019-05-05T21:03:14.640Z,3.00
2019-05-05T21:05:44.822Z,2.72
2019-05-05T21:08:15.078Z,2.92
2019-05-05T21:10:45.547Z,2.80
2019-05-05T21:13:17.725Z,2.95
2019-05-05T21:15:47.979Z,3.37
2019-05-05T21:18:18.312Z,2.90
2019-05-05T21:20:48.575Z,4.45
2019-05-05T21:23:24.566Z,3.12
2019-05-05T21:25:59.503Z,3.20
2019-05-05T21:28:29.560Z,3.12
2019-05-05T21:30:59.688Z,3.50
2019-05-05T21:33:29.796Z,3.20
2019-05-05T21:36:00.053Z,3.62
2019-05-05T21:38:30.268Z,3.15
2019-05-05T21:41:00.190Z,3.90
2019-05-05T21:43:30.596Z,4.28
2019-05-05T21:46:00.784Z,3.50
2019-05-05T21:48:31.059Z,3.20
2019-05-05T21:51:14.119Z,3.80
2019-05-05T21:53:48.202Z,3.20
2019-05-05T21:56:31.727Z,3.80
2019-05-05T21:59:04.034Z,3.92
2019-05-05T22:01:39.723Z,2.90
2019-05-05T22:04:06.549Z,3.60
2019-05-05T22:06:36.512Z,4.45
2019-05-05T22:09:07.217Z,4.33
2019-05-05T22:11:38.512Z,4.47
2019-05-05T22:14:08.934Z,11.45
2019-05-05T22:16:39.192Z,11.22
2019-05-05T22:19:09.131Z,4.05
2019-05-05T22:21:50.031Z,5.15
2019-05-05T22:24:21.483Z,3.52
2019-05-05T22:26:54.135Z,4.40
2019-05-05T22:29:25.485Z,5.15
2019-05-05T22:31:55.698Z,5.78
2019-05-05T22:34:26.003Z,5.83
2019-05-05T22:36:56.278Z,5.33
2019-05-05T22:39:26.483Z,5.30
2019-05-05T22:41:56.637Z,5.50
2019-05-05T22:44:26.550Z,5.50
2019-05-05T22:46:56.735Z,5.33
2019-05-05T22:49:26.558Z,4.50
2019-05-05T22:51:56.701Z,5.03
2019-05-05T22:54:26.590Z,5.03
2019-05-05T22:56:56.904Z,4.92
2019-05-05T22:59:26.826Z,5.30
2019-05-05T23:01:57.942Z,4.75
2019-05-05T23:04:45.690Z,5.33
2019-05-05T23:07:17.698Z,4.87
2019-05-05T23:09:47.912Z,5.28
2019-05-05T23:12:18.168Z,5.97
2019-05-05T23:14:48.018Z,6.08
2019-05-05T23:17:26.435Z,5.47
2019-05-05T23:20:07.269Z,5.92
2019-05-05T23:22:39.094Z,5.90
2019-05-05T23:25:16.731Z,5.20
2019-05-05T23:27:54.568Z,5.17
2019-05-05T23:30:37.852Z,4.25
2019-05-05T23:32:57.107Z,5.17
2019-05-05T23:35:26.947Z,5.58
2019-05-05T23:37:56.778Z,5.53
2019-05-05T23:40:27.486Z,5.70
2019-05-05T23:42:57.678Z,4.97
2019-05-05T23:45:27.962Z,5.28
2019-05-05T23:47:58.180Z,4.95
2019-05-05T23:50:28.451Z,5.15
2019-05-05T23:52:58.559Z,5.10
2019-05-05T23:55:28.793Z,4.75
2019-05-05T23:57:58.979Z,5.42
